createdAt,value
2016-02-13T00:00:32.567Z,0
2016-02-13T00:01:32.631Z,0
2016-02-13T00:02:32.478Z,0
2016-02-13T00:03:32.465Z,0
2016-02-13T00:04:32.469Z,0
2016-02-13T00:05:32.425Z,0
2016-02-13T00:06:32.412Z,0
2016-02-13T00:07:32.383Z,0
2016-02-13T00:08:32.386Z,0
2016-02-13T00:09:32.327Z,0
2016-02-13T00:10:32.175Z,0
2016-02-13T00:11:32.286Z,0
2016-02-13T00:12:32.274Z,0
2016-02-13T00:13:32.244Z,0
2016-02-13T00:14:32.247Z,0
2016-02-13T00:15:32.219Z,0
2016-02-13T00:16:32.206Z,0
2016-02-13T00:17:32.193Z,0
2016-02-13T00:18:32.135Z,0
2016-02-13T00:19:32.122Z,0
2016-02-13T00:20:32.093Z,0
2016-02-13T00:21:32.112Z,0
2016-02-13T00:22:32.054Z,0
2016-02-13T00:23:32.026Z,0
2016-02-13T00:24:32.014Z,0
2016-02-13T00:25:32.062Z,0
2016-02-13T00:26:31.971Z,0
2016-02-13T00:27:31.930Z,0
2016-02-13T00:28:31.932Z,0
2016-02-13T00:29:31.919Z,0
2016-02-13T00:30:31.890Z,0
2016-02-13T00:31:31.846Z,0
2016-02-13T00:32:31.849Z,0
2016-02-13T00:33:31.789Z,0
2016-02-13T00:34:31.776Z,0
2016-02-13T00:35:31.842Z,0
2016-02-13T00:36:31.735Z,0
2016-02-13T00:37:31.722Z,0
2016-02-13T00:38:31.694Z,0
2016-02-13T00:39:31.666Z,0
2016-02-13T00:40:31.637Z,0
2016-02-13T00:41:31.640Z,0
2016-02-13T00:42:31.877Z,0
2016-02-13T00:43:31.583Z,0
2016-02-13T00:44:31.664Z,0
2016-02-13T00:45:31.527Z,0
2016-02-13T00:46:31.513Z,0
2016-02-13T00:47:31.485Z,0
2016-02-13T00:48:31.472Z,0
2016-02-13T00:49:31.427Z,0
2016-02-13T00:50:31.524Z,0
2016-02-13T00:51:31.402Z,0
2016-02-13T00:52:31.388Z,0
2016-02-13T00:53:31.361Z,0
2016-02-13T00:54:31.321Z,0
2016-02-13T00:55:31.308Z,0
2016-02-13T00:56:31.284Z,0
2016-02-13T00:57:31.272Z,0
2016-02-13T00:58:31.462Z,0
2016-02-13T00:59:31.214Z,0
2016-02-13T01:00:31.280Z,0
2016-02-13T01:01:31.283Z,0
2016-02-13T01:02:31.147Z,0
2016-02-13T01:03:31.134Z,0
2016-02-13T01:04:31.106Z,0
2016-02-13T01:05:31.108Z,0
2016-02-13T01:06:31.049Z,0
2016-02-13T01:07:31.036Z,0
2016-02-13T01:08:31.023Z,0
2016-02-13T01:09:30.978Z,0
2016-02-13T01:10:31.059Z,0
2016-02-13T01:11:30.984Z,0
2016-02-13T01:12:30.956Z,0
2016-02-13T01:13:30.912Z,0
2016-02-13T01:14:30.899Z,0
2016-02-13T01:15:30.869Z,0
2016-02-13T01:16:30.841Z,0
2016-02-13T01:17:30.860Z,0
2016-02-13T01:18:30.775Z,0
2016-02-13T01:19:30.888Z,0
2016-02-13T01:20:30.734Z,0
2016-02-13T01:21:30.783Z,0
2016-02-13T01:22:30.694Z,0
2016-02-13T01:23:30.681Z,0
2016-02-13T01:24:30.652Z,0
2016-02-13T01:25:30.624Z,0
2016-02-13T01:26:30.627Z,0
2016-02-13T01:27:30.676Z,0
2016-02-13T01:28:30.554Z,0
2016-02-13T01:29:30.541Z,0
2016-02-13T01:30:30.513Z,0
2016-02-13T01:31:30.516Z,0
2016-02-13T01:32:30.488Z,0
2016-02-13T01:33:30.553Z,0
2016-02-13T01:34:30.431Z,0
2016-02-13T01:35:30.402Z,0
2016-02-13T01:36:30.358Z,0
2016-02-13T01:37:30.532Z,0
2016-02-13T01:38:30.363Z,0
2016-02-13T01:39:30.554Z,0
2016-02-13T01:40:30.307Z,0
2016-02-13T01:41:30.278Z,0
2016-02-13T01:42:30.297Z,0
2016-02-13T01:43:30.237Z,0
2016-02-13T01:44:30.272Z,0
2016-02-13T01:45:30.165Z,0
2016-02-13T01:46:30.152Z,0
2016-02-13T01:47:30.169Z,0
2016-02-13T01:48:30.095Z,0
2016-02-13T01:49:30.114Z,0
2016-02-13T01:50:30.053Z,0
2016-02-13T01:51:30.134Z,0
2016-02-13T01:52:29.997Z,0
2016-02-13T01:53:29.999Z,0
2016-02-13T01:54:29.958Z,0
2016-02-13T01:55:30.164Z,0
2016-02-13T01:56:29.948Z,0
2016-02-13T01:57:29.889Z,0
2016-02-13T01:58:29.860Z,0
2016-02-13T01:59:29.895Z,0
2016-02-13T02:00:29.834Z,0
2016-02-13T02:01:29.821Z,0
2016-02-13T02:02:29.778Z,0
2016-02-13T02:03:29.749Z,0
2016-02-13T02:04:29.752Z,0
2016-02-13T02:05:29.709Z,0
2016-02-13T02:06:29.681Z,0
2016-02-13T02:07:29.669Z,0
2016-02-13T02:08:29.639Z,0
2016-02-13T02:09:29.627Z,0
2016-02-13T02:10:29.597Z,0
2016-02-13T02:11:29.600Z,0
2016-02-13T02:12:29.540Z,0
2016-02-13T02:13:29.528Z,0
2016-02-13T02:14:29.515Z,0
2016-02-13T02:15:29.502Z,0
2016-02-13T02:16:29.458Z,0
2016-02-13T02:17:29.445Z,0
2016-02-13T02:18:29.416Z,0
2016-02-13T02:19:29.404Z,0
2016-02-13T02:20:29.421Z,0
2016-02-13T02:21:29.331Z,0
2016-02-13T02:22:29.396Z,0
2016-02-13T02:23:29.839Z,0
2016-02-13T02:24:29.295Z,0
2016-02-13T02:25:29.250Z,0
2016-02-13T02:26:29.223Z,0
2016-02-13T02:27:29.210Z,0
2016-02-13T02:28:29.182Z,0
2016-02-13T02:29:29.153Z,0
2016-02-13T02:30:29.155Z,0
2016-02-13T02:31:29.111Z,0
2016-02-13T02:32:29.177Z,0
2016-02-13T02:33:29.071Z,0
2016-02-13T02:34:29.057Z,0
2016-02-13T02:35:29.013Z,0
2016-02-13T02:36:29.250Z,0
2016-02-13T02:37:28.988Z,0
2016-02-13T02:38:28.959Z,0
2016-02-13T02:39:28.930Z,0
2016-02-13T02:40:28.917Z,0
2016-02-13T02:41:28.950Z,0
2016-02-13T02:42:28.845Z,0
2016-02-13T02:43:28.849Z,0
2016-02-13T02:44:28.820Z,0
2016-02-13T02:45:28.792Z,0
2016-02-13T02:46:28.778Z,0
2016-02-13T02:47:28.438Z,0
2016-02-13T02:48:28.753Z,0
2016-02-13T02:49:28.677Z,0
2016-02-13T02:50:28.680Z,0
2016-02-13T02:51:28.682Z,0
2016-02-13T02:52:28.889Z,0
2016-02-13T02:53:28.611Z,0
2016-02-13T02:54:28.598Z,0
2016-02-13T02:55:28.571Z,0
2016-02-13T02:56:28.527Z,0
2016-02-13T02:57:28.514Z,0
2016-02-13T02:58:28.596Z,0
2016-02-13T02:59:28.504Z,0
2016-02-13T03:00:28.445Z,0
2016-02-13T03:01:28.432Z,0
2016-02-13T03:02:28.400Z,0
2016-02-13T03:03:28.373Z,0
2016-02-13T03:04:28.361Z,0
2016-02-13T03:05:28.331Z,0
2016-02-13T03:06:28.318Z,0
2016-02-13T03:07:28.274Z,0
2016-02-13T03:08:28.277Z,0
2016-02-13T03:09:28.218Z,0
2016-02-13T03:10:28.253Z,0
2016-02-13T03:11:28.208Z,0
2016-02-13T03:12:28.164Z,0
2016-02-13T03:13:28.150Z,0
2016-02-13T03:14:28.141Z,0
2016-02-13T03:15:27.925Z,0
2016-02-13T03:16:28.099Z,0
2016-02-13T03:17:28.039Z,0
2016-02-13T03:18:28.013Z,0
2016-02-13T03:19:27.999Z,0
2016-02-13T03:20:27.961Z,0
2016-02-13T03:21:27.965Z,0
2016-02-13T03:22:27.953Z,0
2016-02-13T03:23:27.908Z,0
2016-02-13T03:24:27.863Z,0
2016-02-13T03:25:27.850Z,0
2016-02-13T03:26:27.855Z,0
2016-02-13T03:27:27.812Z,0
2016-02-13T03:28:27.783Z,0
2016-02-13T03:29:27.770Z,0
2016-02-13T03:30:27.757Z,0
2016-02-13T03:31:27.714Z,0
2016-02-13T03:32:27.716Z,0
2016-02-13T03:33:27.656Z,0
2016-02-13T03:34:27.643Z,0
2016-02-13T03:35:27.630Z,0
2016-02-13T03:36:27.602Z,0
2016-02-13T03:37:27.605Z,0
2016-02-13T03:38:27.794Z,0
2016-02-13T03:39:27.547Z,0
2016-02-13T03:40:27.503Z,0
2016-02-13T03:41:27.475Z,0
2016-02-13T03:42:27.473Z,0
2016-02-13T03:43:27.558Z,0
2016-02-13T03:44:27.407Z,0
2016-02-13T03:45:27.366Z,0
2016-02-13T03:46:27.155Z,0
2016-02-13T03:47:27.306Z,0
2016-02-13T03:48:27.258Z,0
2016-02-13T03:49:27.663Z,0
2016-02-13T03:50:27.223Z,0
2016-02-13T03:51:27.175Z,0
2016-02-13T03:52:27.190Z,0
2016-02-13T03:53:27.129Z,0
2016-02-13T03:54:27.099Z,0
2016-02-13T03:55:27.069Z,0
2016-02-13T03:56:27.070Z,0
2016-02-13T03:57:27.024Z,0
2016-02-13T03:58:27.152Z,0
2016-02-13T03:59:26.983Z,0
2016-02-13T04:00:26.968Z,0
2016-02-13T04:01:26.924Z,0
2016-02-13T04:02:26.894Z,0
2016-02-13T04:03:26.897Z,0
2016-02-13T04:04:26.854Z,0
2016-02-13T04:05:26.842Z,0
2016-02-13T04:06:26.797Z,0
2016-02-13T04:07:26.854Z,0
2016-02-13T04:08:26.613Z,0
2016-02-13T04:09:29.211Z,0
2016-02-13T04:10:26.766Z,0
2016-02-13T04:11:27.316Z,0
2016-02-13T04:12:26.662Z,0
2016-02-13T04:13:26.665Z,0
2016-02-13T04:14:26.620Z,0
2016-02-13T04:15:26.623Z,0
2016-02-13T04:16:26.580Z,0
2016-02-13T04:17:26.566Z,0
2016-02-13T04:18:26.537Z,0
2016-02-13T04:19:26.529Z,0
2016-02-13T04:20:26.485Z,0
2016-02-13T04:21:26.473Z,0
2016-02-13T04:22:26.428Z,0
2016-02-13T04:23:26.415Z,0
2016-02-13T04:24:26.387Z,0
2016-02-13T04:25:26.359Z,0
2016-02-13T04:26:26.361Z,0
2016-02-13T04:27:26.332Z,0
2016-02-13T04:28:26.303Z,0
2016-02-13T04:29:26.289Z,0
2016-02-13T04:30:26.306Z,0
2016-02-13T04:31:26.294Z,0
2016-02-13T04:32:26.219Z,0
2016-02-13T04:33:26.207Z,0
2016-02-13T04:34:26.146Z,0
2016-02-13T04:35:26.352Z,0
2016-02-13T04:36:26.105Z,0
2016-02-13T04:37:26.092Z,0
2016-02-13T04:38:26.095Z,0
2016-02-13T04:39:26.036Z,0
2016-02-13T04:40:26.086Z,0
2016-02-13T04:41:25.979Z,0
2016-02-13T04:42:25.983Z,0
2016-02-13T04:43:25.939Z,0
2016-02-13T04:44:25.926Z,0
2016-02-13T04:45:25.897Z,0
2016-02-13T04:46:25.869Z,0
2016-02-13T04:47:25.840Z,0
2016-02-13T04:48:25.845Z,0
2016-02-13T04:49:25.816Z,0
2016-02-13T04:50:25.819Z,0
2016-02-13T04:51:25.745Z,0
2016-02-13T04:52:25.764Z,0
2016-02-13T04:53:25.703Z,0
2016-02-13T04:54:25.707Z,0
2016-02-13T04:55:25.662Z,0
2016-02-13T04:56:25.650Z,0
2016-02-13T04:57:25.620Z,0
2016-02-13T04:58:25.579Z,0
2016-02-13T04:59:25.565Z,0
2016-02-13T05:00:25.570Z,0
2016-02-13T05:01:25.509Z,0
2016-02-13T05:02:25.512Z,0
2016-02-13T05:03:25.467Z,0
2016-02-13T05:04:25.456Z,0
2016-02-13T05:05:24.677Z,0
2016-02-13T05:06:25.414Z,0
2016-02-13T05:07:25.400Z,0
2016-02-13T05:08:25.344Z,0
2016-02-13T05:09:25.331Z,0
2016-02-13T05:10:25.333Z,0
2016-02-13T05:11:25.305Z,0
2016-02-13T05:12:25.292Z,0
2016-02-13T05:13:25.232Z,0
2016-02-13T05:14:25.204Z,0
2016-02-13T05:15:25.207Z,0
2016-02-13T05:16:25.162Z,0
2016-02-13T05:17:25.198Z,0
2016-02-13T05:18:25.123Z,0
2016-02-13T05:19:25.110Z,0
2016-02-13T05:20:25.065Z,0
2016-02-13T05:21:25.085Z,0
2016-02-13T05:22:25.024Z,0
2016-02-13T05:23:24.996Z,0
2016-02-13T05:24:24.999Z,0
2016-02-13T05:25:25.001Z,0
2016-02-13T05:26:24.945Z,0
2016-02-13T05:27:24.915Z,0
2016-02-13T05:28:24.887Z,0
2016-02-13T05:29:24.845Z,0
2016-02-13T05:30:24.832Z,0
2016-02-13T05:31:24.789Z,0
2016-02-13T05:32:24.994Z,0
2016-02-13T05:33:24.748Z,0
2016-02-13T05:34:24.737Z,0
2016-02-13T05:35:24.709Z,0
2016-02-13T05:36:24.695Z,0
2016-02-13T05:37:24.745Z,0
2016-02-13T05:38:24.639Z,0
2016-02-13T05:39:24.626Z,0
2016-02-13T05:40:24.472Z,0
2016-02-13T05:41:24.584Z,0
2016-02-13T05:42:24.555Z,0
2016-02-13T05:43:24.543Z,0
2016-02-13T05:44:24.483Z,0
2016-02-13T05:45:24.486Z,0
2016-02-13T05:46:24.457Z,0
2016-02-13T05:47:24.444Z,0
2016-02-13T05:48:24.400Z,0
2016-02-13T05:49:24.372Z,0
2016-02-13T05:50:24.374Z,0
2016-02-13T05:51:24.346Z,0
2016-02-13T05:52:24.333Z,0
2016-02-13T05:53:24.289Z,0
2016-02-13T05:54:24.291Z,0
2016-02-13T05:55:24.233Z,0
2016-02-13T05:56:24.252Z,0
2016-02-13T05:57:24.192Z,0
2016-02-13T05:58:24.194Z,0
2016-02-13T05:59:24.150Z,0
2016-02-13T06:00:24.123Z,0
2016-02-13T06:01:24.126Z,0
2016-02-13T06:02:24.097Z,0
2016-02-13T06:03:24.069Z,0
2016-02-13T06:04:24.040Z,0
2016-02-13T06:05:24.012Z,0
2016-02-13T06:06:24.077Z,0
2016-02-13T06:07:23.986Z,0
2016-02-13T06:08:23.958Z,0
2016-02-13T06:09:23.946Z,0
2016-02-13T06:10:23.918Z,0
2016-02-13T06:11:23.873Z,0
2016-02-13T06:12:23.894Z,0
2016-02-13T06:13:23.803Z,0
2016-02-13T06:14:23.789Z,0
2016-02-13T06:15:23.761Z,0
2016-02-13T06:16:23.748Z,0
2016-02-13T06:17:23.705Z,0
2016-02-13T06:18:23.707Z,0
2016-02-13T06:19:23.663Z,0
2016-02-13T06:20:23.650Z,0
2016-02-13T06:21:23.636Z,0
2016-02-13T06:22:23.593Z,0
2016-02-13T06:23:23.580Z,0
2016-02-13T06:24:23.582Z,0
2016-02-13T06:25:23.522Z,0
2016-02-13T06:26:23.525Z,4
2016-02-13T06:27:23.513Z,4
2016-02-13T06:28:23.469Z,0
2016-02-13T06:29:23.690Z,4
2016-02-13T06:30:23.400Z,4
2016-02-13T06:31:23.402Z,4
2016-02-13T06:32:23.374Z,4
2016-02-13T06:33:23.360Z,8
2016-02-13T06:34:23.489Z,8
2016-02-13T06:35:23.319Z,8
2016-02-13T06:36:23.291Z,8
2016-02-13T06:37:23.246Z,8
2016-02-13T06:38:23.220Z,12
2016-02-13T06:39:23.191Z,16
2016-02-13T06:40:23.179Z,16
2016-02-13T06:41:23.134Z,20
2016-02-13T06:42:23.137Z,20
2016-02-13T06:43:23.108Z,24
2016-02-13T06:44:23.080Z,28
2016-02-13T06:45:23.035Z,32
2016-02-13T06:46:23.038Z,32
2016-02-13T06:47:23.214Z,36
2016-02-13T06:48:22.999Z,40
2016-02-13T06:49:22.955Z,44
2016-02-13T06:50:22.958Z,52
2016-02-13T06:51:22.897Z,56
2016-02-13T06:52:22.900Z,60
2016-02-13T06:53:22.871Z,64
2016-02-13T06:54:22.843Z,68
2016-02-13T06:55:22.861Z,76
2016-02-13T06:56:22.772Z,80
2016-02-13T06:57:22.774Z,88
2016-02-13T06:58:22.730Z,96
2016-02-13T06:59:22.592Z,100
2016-02-13T07:00:22.703Z,108
2016-02-13T07:01:22.706Z,112
2016-02-13T07:02:22.680Z,120
2016-02-13T07:03:22.604Z,128
2016-02-13T07:04:22.591Z,132
2016-02-13T07:05:22.578Z,136
2016-02-13T07:06:22.566Z,148
2016-02-13T07:07:22.569Z,156
2016-02-13T07:08:22.524Z,164
2016-02-13T07:09:22.480Z,164
2016-02-13T07:10:22.514Z,172
2016-02-13T07:11:22.423Z,184
2016-02-13T07:12:22.410Z,196
2016-02-13T07:13:22.399Z,204
2016-02-13T07:14:22.386Z,216
2016-02-13T07:15:22.342Z,228
2016-02-13T07:16:22.329Z,240
2016-02-13T07:17:22.286Z,248
2016-02-13T07:18:22.272Z,260
2016-02-13T07:19:22.244Z,268
2016-02-13T07:20:22.247Z,276
2016-02-13T07:21:22.187Z,280
2016-02-13T07:22:22.174Z,284
2016-02-13T07:23:22.145Z,284
2016-02-13T07:24:22.117Z,284
2016-02-13T07:25:22.104Z,292
2016-02-13T07:26:22.325Z,292
2016-02-13T07:27:22.063Z,296
2016-02-13T07:28:22.018Z,308
2016-02-13T07:29:22.022Z,316
2016-02-13T07:30:21.977Z,324
2016-02-13T07:31:22.044Z,332
2016-02-13T07:32:21.937Z,344
2016-02-13T07:33:21.897Z,344
2016-02-13T07:34:21.868Z,348
2016-02-13T07:35:21.872Z,356
2016-02-13T07:36:21.842Z,360
2016-02-13T07:37:21.814Z,364
2016-02-13T07:38:21.801Z,368
2016-02-13T07:39:21.757Z,368
2016-02-13T07:40:21.759Z,384
2016-02-13T07:41:21.716Z,396
2016-02-13T07:42:21.688Z,400
2016-02-13T07:43:21.690Z,408
2016-02-13T07:44:21.661Z,412
2016-02-13T07:45:21.618Z,424
2016-02-13T07:46:21.589Z,428
2016-02-13T07:47:21.576Z,432
2016-02-13T07:48:21.548Z,444
2016-02-13T07:49:21.535Z,456
2016-02-13T07:50:21.522Z,472
2016-02-13T07:51:21.480Z,488
2016-02-13T07:52:21.451Z,504
2016-02-13T07:53:21.438Z,520
2016-02-13T07:54:21.426Z,520
2016-02-13T07:55:21.397Z,520
2016-02-13T07:56:21.368Z,516
2016-02-13T07:57:21.371Z,496
2016-02-13T07:58:21.311Z,476
2016-02-13T07:59:21.314Z,476
2016-02-13T08:00:21.255Z,480
2016-02-13T08:01:21.241Z,480
2016-02-13T08:02:21.264Z,472
2016-02-13T08:03:21.236Z,460
2016-02-13T08:04:21.207Z,476
2016-02-13T08:05:21.516Z,496
2016-02-13T08:06:21.130Z,512
2016-02-13T08:07:21.101Z,516
2016-02-13T08:08:21.090Z,516
2016-02-13T08:09:21.060Z,512
2016-02-13T08:10:21.016Z,512
2016-02-13T08:11:21.018Z,516
2016-02-13T08:12:21.006Z,524
2016-02-13T08:13:20.962Z,528
2016-02-13T08:14:20.934Z,528
2016-02-13T08:15:20.904Z,524
2016-02-13T08:16:20.876Z,528
2016-02-13T08:17:20.864Z,528
2016-02-13T08:18:20.836Z,532
2016-02-13T08:19:20.808Z,524
2016-02-13T08:20:20.796Z,520
2016-02-13T08:21:20.751Z,516
2016-02-13T08:22:20.739Z,512
2016-02-13T08:23:20.960Z,508
2016-02-13T08:24:20.697Z,508
2016-02-13T08:25:20.653Z,512
2016-02-13T08:26:20.642Z,508
2016-02-13T08:27:20.630Z,504
2016-02-13T08:28:20.663Z,508
2016-02-13T08:29:20.621Z,508
2016-02-13T08:30:20.577Z,508
2016-02-13T08:31:20.534Z,508
2016-02-13T08:32:20.506Z,516
2016-02-13T08:33:20.478Z,520
2016-02-13T08:34:20.480Z,520
2016-02-13T08:35:20.438Z,524
2016-02-13T08:36:20.493Z,528
2016-02-13T08:37:20.464Z,532
2016-02-13T08:38:20.357Z,536
2016-02-13T08:39:20.343Z,540
2016-02-13T08:40:20.331Z,544
2016-02-13T08:41:20.334Z,544
2016-02-13T08:42:20.259Z,548
2016-02-13T08:43:20.230Z,552
2016-02-13T08:44:20.219Z,552
2016-02-13T08:45:20.190Z,556
2016-02-13T08:46:20.162Z,560
2016-02-13T08:47:20.150Z,560
2016-02-13T08:48:20.121Z,564
2016-02-13T08:49:20.093Z,564
2016-02-13T08:50:20.064Z,568
2016-02-13T08:51:20.051Z,568
2016-02-13T08:52:20.006Z,564
2016-02-13T08:53:19.994Z,568
2016-02-13T08:54:19.981Z,568
2016-02-13T08:55:19.955Z,572
2016-02-13T08:56:19.988Z,580
2016-02-13T08:57:19.913Z,584
2016-02-13T08:58:19.868Z,592
2016-02-13T08:59:19.872Z,596
2016-02-13T09:00:19.843Z,596
2016-02-13T09:01:19.799Z,604
2016-02-13T09:02:19.785Z,608
2016-02-13T09:03:19.777Z,616
2016-02-13T09:04:19.968Z,620
2016-02-13T09:05:19.721Z,628
2016-02-13T09:06:19.707Z,636
2016-02-13T09:07:19.664Z,648
2016-02-13T09:08:19.650Z,656
2016-02-13T09:09:19.622Z,656
2016-02-13T09:10:19.672Z,664
2016-02-13T09:11:19.581Z,664
2016-02-13T09:12:19.552Z,668
2016-02-13T09:13:19.524Z,680
2016-02-13T09:14:19.511Z,700
2016-02-13T09:15:19.483Z,724
2016-02-13T09:16:19.454Z,744
2016-02-13T09:17:19.426Z,752
2016-02-13T09:18:19.428Z,760
2016-02-13T09:19:19.368Z,764
2016-02-13T09:20:19.545Z,776
2016-02-13T09:21:19.328Z,788
2016-02-13T09:22:19.299Z,800
2016-02-13T09:23:19.301Z,824
2016-02-13T09:24:19.273Z,836
2016-02-13T09:25:19.259Z,836
2016-02-13T09:26:19.200Z,852
2016-02-13T09:27:19.203Z,840
2016-02-13T09:28:19.159Z,828
2016-02-13T09:29:19.161Z,820
2016-02-13T09:30:19.149Z,808
2016-02-13T09:31:19.323Z,792
2016-02-13T09:32:19.079Z,796
2016-02-13T09:33:19.052Z,812
2016-02-13T09:34:19.024Z,840
2016-02-13T09:35:19.026Z,860
2016-02-13T09:36:18.997Z,892
2016-02-13T09:37:18.954Z,920
2016-02-13T09:38:18.940Z,952
2016-02-13T09:39:18.896Z,976
2016-02-13T09:40:18.899Z,984
2016-02-13T09:41:18.870Z,972
2016-02-13T09:42:18.842Z,964
2016-02-13T09:43:18.829Z,972
2016-02-13T09:44:18.768Z,972
2016-02-13T09:45:18.772Z,976
2016-02-13T09:46:18.743Z,980
2016-02-13T09:47:18.731Z,988
2016-02-13T09:48:18.688Z,1000
2016-02-13T09:49:18.675Z,1012
2016-02-13T09:50:18.646Z,1032
2016-02-13T09:51:18.618Z,1032
2016-02-13T09:52:18.607Z,1024
2016-02-13T09:53:18.578Z,1024
2016-02-13T09:54:18.565Z,1012
2016-02-13T09:55:18.551Z,968
2016-02-13T09:56:18.539Z,988
2016-02-13T09:57:18.478Z,976
2016-02-13T09:58:18.481Z,988
2016-02-13T09:59:18.469Z,940
2016-02-13T10:00:18.410Z,964
2016-02-13T10:01:18.382Z,956
2016-02-13T10:02:18.358Z,952
2016-02-13T10:03:18.330Z,936
2016-02-13T10:04:18.332Z,936
2016-02-13T10:05:18.288Z,912
2016-02-13T10:06:18.259Z,896
2016-02-13T10:07:18.247Z,880
2016-02-13T10:08:18.204Z,904
2016-02-13T10:09:18.222Z,888
2016-02-13T10:10:18.178Z,904
2016-02-13T10:11:18.149Z,908
2016-02-13T10:12:18.121Z,876
2016-02-13T10:13:18.107Z,860
2016-02-13T10:14:18.079Z,880
2016-02-13T10:15:18.051Z,968
2016-02-13T10:16:18.054Z,1060
2016-02-13T10:17:18.010Z,1164
2016-02-13T10:18:17.982Z,1204
2016-02-13T10:19:17.969Z,1220
2016-02-13T10:20:17.956Z,1180
2016-02-13T10:21:17.958Z,1140
2016-02-13T10:22:18.023Z,1108
2016-02-13T10:23:17.854Z,1104
2016-02-13T10:24:17.857Z,1104
2016-02-13T10:25:17.672Z,1104
2016-02-13T10:26:17.816Z,1112
2016-02-13T10:27:17.773Z,1116
2016-02-13T10:28:17.884Z,1120
2016-02-13T10:29:17.716Z,1120
2016-02-13T10:30:17.718Z,1112
2016-02-13T10:31:17.705Z,1100
2016-02-13T10:32:17.679Z,1088
2016-02-13T10:33:17.665Z,1076
2016-02-13T10:34:17.606Z,1060
2016-02-13T10:35:17.640Z,1048
2016-02-13T10:36:17.580Z,1036
2016-02-13T10:37:17.535Z,1032
2016-02-13T10:38:17.538Z,1040
2016-02-13T10:39:17.494Z,1044
2016-02-13T10:40:17.450Z,1040
2016-02-13T10:41:17.453Z,1044
2016-02-13T10:42:17.439Z,1036
2016-02-13T10:43:17.383Z,1020
2016-02-13T10:44:17.369Z,1036
2016-02-13T10:45:17.356Z,1040
2016-02-13T10:46:17.328Z,1060
2016-02-13T10:47:17.362Z,1064
2016-02-13T10:48:17.302Z,1072
2016-02-13T10:49:17.258Z,1092
2016-02-13T10:50:17.277Z,1116
2016-02-13T10:51:17.217Z,1136
2016-02-13T10:52:17.190Z,1148
2016-02-13T10:53:17.176Z,1160
2016-02-13T10:54:17.132Z,1168
2016-02-13T10:55:17.135Z,1184
2016-02-13T10:56:17.107Z,1180
2016-02-13T10:57:17.079Z,1200
2016-02-13T10:58:16.894Z,1216
2016-02-13T10:59:17.022Z,1248
2016-02-13T11:00:16.993Z,1284
2016-02-13T11:01:16.995Z,1300
2016-02-13T11:02:16.939Z,1316
2016-02-13T11:03:16.958Z,1336
2016-02-13T11:04:16.945Z,1360
2016-02-13T11:05:16.871Z,1380
2016-02-13T11:06:16.858Z,1396
2016-02-13T11:07:16.844Z,1412
2016-02-13T11:08:16.879Z,1428
2016-02-13T11:09:16.787Z,1436
2016-02-13T11:10:16.790Z,1444
2016-02-13T11:11:16.777Z,1476
2016-02-13T11:12:16.719Z,1516
2016-02-13T11:13:16.721Z,1548
2016-02-13T11:14:16.662Z,1556
2016-02-13T11:15:16.649Z,1588
2016-02-13T11:16:16.637Z,1608
2016-02-13T11:17:16.607Z,1620
2016-02-13T11:18:16.609Z,1624
2016-02-13T11:19:16.722Z,1632
2016-02-13T11:20:16.553Z,1652
2016-02-13T11:21:16.527Z,1688
2016-02-13T11:22:16.497Z,1708
2016-02-13T11:23:16.469Z,1736
2016-02-13T11:24:16.441Z,1748
2016-02-13T11:25:16.427Z,1764
2016-02-13T11:26:16.821Z,1776
2016-02-13T11:27:16.371Z,1824
2016-02-13T11:28:16.373Z,1856
2016-02-13T11:29:16.329Z,1900
2016-02-13T11:30:16.317Z,1896
2016-02-13T11:31:16.303Z,1924
2016-02-13T11:32:16.275Z,1812
2016-02-13T11:33:16.247Z,1896
2016-02-13T11:34:16.235Z,1724
2016-02-13T11:35:16.191Z,1696
2016-02-13T11:36:16.194Z,1504
2016-02-13T11:37:16.009Z,1572
2016-02-13T11:38:16.137Z,1592
2016-02-13T11:39:16.110Z,1748
2016-02-13T11:40:16.080Z,1712
2016-02-13T11:41:16.068Z,1812
2016-02-13T11:42:16.040Z,1996
2016-02-13T11:43:16.011Z,1816
2016-02-13T11:44:16.014Z,1788
2016-02-13T11:45:15.967Z,1784
2016-02-13T11:46:15.955Z,1756
2016-02-13T11:47:15.911Z,1828
2016-02-13T11:48:15.742Z,1788
2016-02-13T11:49:15.870Z,1836
2016-02-13T11:50:15.857Z,1820
2016-02-13T11:51:15.828Z,1848
2016-02-13T11:52:15.816Z,1900
2016-02-13T11:53:15.787Z,2116
2016-02-13T11:54:15.758Z,2104
2016-02-13T11:55:15.730Z,2288
2016-02-13T11:56:15.735Z,2528
2016-02-13T11:57:15.705Z,2664
2016-02-13T11:58:15.662Z,2812
2016-02-13T11:59:15.665Z,2600
2016-02-13T12:00:15.636Z,2788
2016-02-13T12:01:15.639Z,2380
2016-02-13T12:02:15.580Z,2808
2016-02-13T12:03:15.568Z,2676
2016-02-13T12:04:15.384Z,2304
2016-02-13T12:05:15.501Z,2264
2016-02-13T12:06:15.503Z,2100
2016-02-13T12:07:15.459Z,2084
2016-02-13T12:08:15.462Z,2084
2016-02-13T12:09:15.417Z,2148
2016-02-13T12:10:15.436Z,2340
2016-02-13T12:11:15.548Z,2580
2016-02-13T12:12:15.378Z,2636
2016-02-13T12:13:15.334Z,2712
2016-02-13T12:14:15.323Z,2976
2016-02-13T12:15:15.294Z,3004
2016-02-13T12:16:15.281Z,2576
2016-02-13T12:17:15.239Z,2464
2016-02-13T12:18:15.069Z,2348
2016-02-13T12:19:15.197Z,2280
2016-02-13T12:20:15.184Z,2212
2016-02-13T12:21:15.155Z,2092
2016-02-13T12:22:15.394Z,2060
2016-02-13T12:23:15.115Z,2112
2016-02-13T12:24:15.102Z,2268
2016-02-13T12:25:15.072Z,2324
2016-02-13T12:26:15.042Z,2284
2016-02-13T12:27:15.029Z,2348
2016-02-13T12:28:15.003Z,2520
2016-02-13T12:29:14.975Z,2748
2016-02-13T12:30:14.962Z,2768
2016-02-13T12:31:14.933Z,2784
2016-02-13T12:32:14.922Z,2928
2016-02-13T12:33:14.738Z,2988
2016-02-13T12:34:14.866Z,2952
2016-02-13T12:35:14.852Z,2712
2016-02-13T12:36:14.840Z,2592
2016-02-13T12:37:14.890Z,2680
2016-02-13T12:38:14.799Z,2752
2016-02-13T12:39:14.770Z,2860
2016-02-13T12:40:14.741Z,3084
2016-02-13T12:41:14.712Z,3160
2016-02-13T12:42:14.700Z,3184
2016-02-13T12:43:14.673Z,3200
2016-02-13T12:44:14.644Z,3184
2016-02-13T12:45:14.773Z,3152
2016-02-13T12:46:14.620Z,3104
2016-02-13T12:47:14.575Z,3100
2016-02-13T12:48:14.561Z,3120
2016-02-13T12:49:14.362Z,3176
2016-02-13T12:50:14.490Z,3240
2016-02-13T12:51:14.463Z,3300
2016-02-13T12:52:14.436Z,3320
2016-02-13T12:53:14.393Z,3240
2016-02-13T12:54:14.373Z,3284
2016-02-13T12:55:14.215Z,3092
2016-02-13T12:56:14.322Z,2808
2016-02-13T12:57:14.271Z,2840
2016-02-13T12:58:14.238Z,2952
2016-02-13T12:59:14.208Z,2928
2016-02-13T13:00:14.053Z,2796
2016-02-13T13:01:14.163Z,2496
2016-02-13T13:02:14.133Z,2188
2016-02-13T13:03:14.414Z,2156
2016-02-13T13:04:14.103Z,2176
2016-02-13T13:05:14.104Z,2168
2016-02-13T13:06:14.075Z,2112
2016-02-13T13:07:14.070Z,2008
2016-02-13T13:08:14.230Z,1784
2016-02-13T13:09:14.013Z,1604
2016-02-13T13:10:13.968Z,1436
2016-02-13T13:11:13.923Z,1380
2016-02-13T13:12:13.910Z,1416
2016-02-13T13:13:13.913Z,1532
2016-02-13T13:14:13.868Z,1808
2016-02-13T13:15:13.730Z,2204
2016-02-13T13:16:13.811Z,2432
2016-02-13T13:17:13.813Z,2468
2016-02-13T13:18:13.801Z,2440
2016-02-13T13:19:13.772Z,2368
2016-02-13T13:20:13.760Z,2248
2016-02-13T13:21:13.746Z,2164
2016-02-13T13:22:13.718Z,2176
2016-02-13T13:23:13.533Z,2220
2016-02-13T13:24:13.676Z,2272
2016-02-13T13:25:13.616Z,2316
2016-02-13T13:26:13.619Z,2284
2016-02-13T13:27:13.576Z,2348
2016-02-13T13:28:13.563Z,2468
2016-02-13T13:29:13.534Z,2404
2016-02-13T13:30:13.555Z,2228
2016-02-13T13:31:13.340Z,2108
2016-02-13T13:32:13.468Z,2088
2016-02-13T13:33:13.438Z,2148
2016-02-13T13:34:13.429Z,2180
2016-02-13T13:35:13.400Z,2152
2016-02-13T13:36:13.372Z,2104
2016-02-13T13:37:13.358Z,2052
2016-02-13T13:38:13.348Z,1988
2016-02-13T13:39:13.335Z,1924
2016-02-13T13:40:13.337Z,1868
2016-02-13T13:41:13.293Z,1828
2016-02-13T13:42:13.268Z,1824
2016-02-13T13:43:13.082Z,1852
2016-02-13T13:44:13.335Z,1928
2016-02-13T13:45:13.182Z,2028
2016-02-13T13:46:13.153Z,2136
2016-02-13T13:47:13.140Z,2248
2016-02-13T13:48:13.112Z,2312
2016-02-13T13:49:13.098Z,2496
2016-02-13T13:50:13.070Z,2624
2016-02-13T13:51:13.058Z,2704
2016-02-13T13:52:13.044Z,2688
2016-02-13T13:53:13.047Z,2584
2016-02-13T13:54:12.987Z,2664
2016-02-13T13:55:12.974Z,2720
2016-02-13T13:56:12.962Z,2648
2016-02-13T13:57:12.917Z,2576
2016-02-13T13:58:12.888Z,2508
2016-02-13T13:59:12.876Z,2400
2016-02-13T14:00:12.894Z,2316
2016-02-13T14:01:12.849Z,2240
2016-02-13T14:02:12.822Z,2176
2016-02-13T14:03:12.824Z,2072
2016-02-13T14:04:12.624Z,1972
2016-02-13T14:05:12.985Z,1848
2016-02-13T14:06:12.723Z,1772